Mary Bennett — WDC4592 — position and weather

sailwx.info

Track history (hours):
 
Tides and Currents Weather Stations Pressure Air Temp Water Temp Dewpoint Dewpoint Depression Visibility Wind Speed Wind Dir Waves Ship Positions

Mary Bennett

Owner: Savannah Marine Services, Savannah, GA. More information available from US FCC via Universal Licensing System and Coast Guard Vessel Documentation Center.

Last reported at 2016-Aug-23 17:12 UTC. Time now 2016-Aug-28 00:28 UTC.
Position N 27°42' W 082°36'.

Length 21 m; draft 2.3 m.

Type: Tug. MMSI: 367027140.

Date/timePositionNaut miles runAvg speedWind from/ knotsBaromVisibWave heightAir tempDewpointWater temp
2016-Aug-23 17:12N 27°42' W 082°36'2 3.3
2016-Aug-23 16:33N 27°44' W 082°36'3 3.4
2016-Aug-23 15:32N 27°47' W 082°35'4 4.3
2016-Aug-23 14:33N 27°51' W 082°33'3 2.5
2016-Aug-23 13:33N 27°53' W 082°32'0 0.5
2016-Aug-23 12:33N 27°53' W 082°32'0 0.0
2016-Aug-23 11:11N 27°53' W 082°32'1 1.1
2016-Aug-23 10:33N 27°52' W 082°33'4 4.3
2016-Aug-23 09:33N 27°48' W 082°34'5 4.4
2016-Aug-23 08:26N 27°44' W 082°36'  
2016-Aug-16 19:29N 27°53' W 082°32'0 0.0
2016-Aug-16 15:21N 27°53' W 082°32'0 0.0
2016-Aug-16 14:33N 27°53' W 082°32'0 0.0
2016-Aug-16 13:33N 27°53' W 082°32'0 0.0
2016-Aug-16 12:33N 27°53' W 082°32'0 0.0
2016-Aug-16 11:33N 27°53' W 082°32'0 0.0
2016-Aug-16 10:33N 27°53' W 082°32'0 0.0
2016-Aug-16 09:33N 27°53' W 082°32'0 0.0
2016-Aug-16 08:33N 27°53' W 082°32'0 0.0
2016-Aug-16 07:33N 27°53' W 082°32'0 0.0
2016-Aug-16 04:33N 27°53' W 082°32'0 0.0
2016-Aug-16 03:33N 27°53' W 082°32'0 0.0
2016-Aug-16 02:31N 27°53' W 082°32'0 0.0
2016-Aug-16 01:33N 27°53' W 082°32'0 0.0
2016-Aug-16 00:33N 27°53' W 082°32'0 0.0
2016-Aug-15 23:33N 27°53' W 082°32'0 0.0
2016-Aug-15 22:33N 27°53' W 082°32'0 0.0
2016-Aug-15 21:33N 27°53' W 082°32'0 0.0
2016-Aug-15 20:33N 27°53' W 082°32'0 0.0
2016-Aug-15 19:33N 27°53' W 082°32'0 0.0
2016-Aug-15 18:33N 27°53' W 082°32'0 0.0
2016-Aug-15 17:13N 27°53' W 082°32'0 0.0
2016-Aug-15 16:33N 27°53' W 082°32'0 0.0
2016-Aug-15 15:33N 27°53' W 082°32'1 0.5
2016-Aug-15 14:34N 27°53' W 082°33'3 3.3
2016-Aug-15 13:33N 27°50' W 082°34'3 3.0
2016-Aug-15 12:33N 27°47' W 082°32'3 3.5
2016-Aug-15 11:33N 27°44' W 082°32'84 3.1
2016-Aug-14 08:32N 26°25' W 082°00'2 2.3
2016-Aug-14 07:33N 26°26' W 081°58'3 2.7
2016-Aug-14 06:33N 26°28' W 081°60'4 1.9
2016-Aug-14 04:33N 26°32' W 081°60'0 0.1
2016-Aug-14 03:33N 26°32' W 081°60'0 0.0
2016-Aug-14 02:33N 26°32' W 081°60'0 0.0
2016-Aug-14 01:33N 26°32' W 081°60'0 0.0
2016-Aug-14 00:33N 26°32' W 081°60'0 0.0
2016-Aug-13 23:33N 26°32' W 081°60'0 0.0
2016-Aug-13 22:33N 26°32' W 081°60'0 0.0
2016-Aug-13 21:33N 26°32' W 081°60'0 0.0
2016-Aug-13 20:33N 26°32' W 081°60'1 0.5
2016-Aug-13 19:33N 26°32' W 081°59'3 2.8
2016-Aug-13 18:33N 26°33' W 081°56'3 2.7
2016-Aug-13 17:33N 26°35' W 081°55'  
Track history (hours):
 
Tides and Currents Weather Stations Pressure Air Temp Water Temp Dewpoint Dewpoint Depression Visibility Wind Speed Wind Dir Waves Ship Positions

Mary Bennett

Owner: Savannah Marine Services, Savannah, GA. More information available from US FCC via Universal Licensing System and Coast Guard Vessel Documentation Center.

Last reported at 2016-Aug-23 17:12 UTC. Time now 2016-Aug-28 00:28 UTC.
Position N 27°42' W 082°36'.

Length 21 m; draft 2.3 m.

Type: Tug. MMSI: 367027140.

Date/timePositionNaut miles runAvg speedWind from/ knotsBaromVisibWave heightAir tempDewpointWater temp
2016-Aug-23 17:12N 27°42' W 082°36'2 3.3
2016-Aug-23 16:33N 27°44' W 082°36'3 3.4
2016-Aug-23 15:32N 27°47' W 082°35'4 4.3
2016-Aug-23 14:33N 27°51' W 082°33'3 2.5
2016-Aug-23 13:33N 27°53' W 082°32'0 0.5
2016-Aug-23 12:33N 27°53' W 082°32'0 0.0
2016-Aug-23 11:11N 27°53' W 082°32'1 1.1
2016-Aug-23 10:33N 27°52' W 082°33'4 4.3
2016-Aug-23 09:33N 27°48' W 082°34'5 4.4
2016-Aug-23 08:26N 27°44' W 082°36'  
2016-Aug-16 19:29N 27°53' W 082°32'0 0.0
2016-Aug-16 15:21N 27°53' W 082°32'0 0.0
2016-Aug-16 14:33N 27°53' W 082°32'0 0.0
2016-Aug-16 13:33N 27°53' W 082°32'0 0.0
2016-Aug-16 12:33N 27°53' W 082°32'0 0.0
2016-Aug-16 11:33N 27°53' W 082°32'0 0.0
2016-Aug-16 10:33N 27°53' W 082°32'0 0.0
2016-Aug-16 09:33N 27°53' W 082°32'0 0.0
2016-Aug-16 08:33N 27°53' W 082°32'0 0.0
2016-Aug-16 07:33N 27°53' W 082°32'0 0.0
2016-Aug-16 04:33N 27°53' W 082°32'0 0.0
2016-Aug-16 03:33N 27°53' W 082°32'0 0.0
2016-Aug-16 02:31N 27°53' W 082°32'0 0.0
2016-Aug-16 01:33N 27°53' W 082°32'0 0.0
2016-Aug-16 00:33N 27°53' W 082°32'0 0.0
2016-Aug-15 23:33N 27°53' W 082°32'0 0.0
2016-Aug-15 22:33N 27°53' W 082°32'0 0.0
2016-Aug-15 21:33N 27°53' W 082°32'0 0.0
2016-Aug-15 20:33N 27°53' W 082°32'0 0.0
2016-Aug-15 19:33N 27°53' W 082°32'0 0.0
2016-Aug-15 18:33N 27°53' W 082°32'0 0.0
2016-Aug-15 17:13N 27°53' W 082°32'0 0.0
2016-Aug-15 16:33N 27°53' W 082°32'0 0.0
2016-Aug-15 15:33N 27°53' W 082°32'1 0.5
2016-Aug-15 14:34N 27°53' W 082°33'3 3.3
2016-Aug-15 13:33N 27°50' W 082°34'3 3.0
2016-Aug-15 12:33N 27°47' W 082°32'3 3.5
2016-Aug-15 11:33N 27°44' W 082°32'84 3.1
2016-Aug-14 08:32N 26°25' W 082°00'2 2.3
2016-Aug-14 07:33N 26°26' W 081°58'3 2.7
2016-Aug-14 06:33N 26°28' W 081°60'4 1.9
2016-Aug-14 04:33N 26°32' W 081°60'0 0.1
2016-Aug-14 03:33N 26°32' W 081°60'0 0.0
2016-Aug-14 02:33N 26°32' W 081°60'0 0.0
2016-Aug-14 01:33N 26°32' W 081°60'0 0.0
2016-Aug-14 00:33N 26°32' W 081°60'0 0.0
2016-Aug-13 23:33N 26°32' W 081°60'0 0.0
2016-Aug-13 22:33N 26°32' W 081°60'0 0.0
2016-Aug-13 21:33N 26°32' W 081°60'0 0.0
2016-Aug-13 20:33N 26°32' W 081°60'1 0.5
2016-Aug-13 19:33N 26°32' W 081°59'3 2.8
2016-Aug-13 18:33N 26°33' W 081°56'3 2.7
2016-Aug-13 17:33N 26°35' W 081°55'  

Dump ship's entire track history